Time;durP1;ratioP1;P1;durP2;ratioP2;P2;SDS_P1;SDS_P2;PMS_P1;PMS_P2;Temp;Humidity;BMP_temperature;BMP_pressure;BME280_temperature;BME280_humidity;BME280_pressure;Samples;Min_cycle;Max_cycle;Signal;HPM_P1;HPM_P2
2023/07/27 00:00:27;;;;;;;1.80;0.75;;;13.40;99.90;;;;;;4979526;28;20408;-55
2023/07/27 00:02:53;;;;;;;0.77;0.70;;;13.40;99.90;;;;;;4987666;28;20025;-55
2023/07/27 00:05:18;;;;;;;1.50;1.10;;;13.40;99.90;;;;;;4992494;28;20039;-57
2023/07/27 00:07:44;;;;;;;1.30;0.82;;;13.40;99.90;;;;;;4980962;28;20035;-58
2023/07/27 00:10:09;;;;;;;3.17;0.80;;;13.40;99.90;;;;;;4995467;28;20085;-58
2023/07/27 00:12:35;;;;;;;0.95;0.85;;;13.40;99.90;;;;;;4972927;28;20030;-57
2023/07/27 00:15:01;;;;;;;0.88;0.88;;;13.30;99.90;;;;;;4999673;28;20038;-58
2023/07/27 00:17:26;;;;;;;3.35;1.13;;;13.30;99.90;;;;;;4968204;28;20029;-57
2023/07/27 00:19:52;;;;;;;1.95;1.00;;;13.30;99.90;;;;;;4996198;28;20065;-57
2023/07/27 00:22:17;;;;;;;1.38;1.27;;;13.40;99.90;;;;;;4973624;28;20412;-58
2023/07/27 00:24:43;;;;;;;1.95;1.05;;;13.30;99.90;;;;;;4994910;28;20202;-58
2023/07/27 00:27:08;;;;;;;1.45;1.30;;;13.30;99.90;;;;;;4973431;28;20033;-58
2023/07/27 00:29:34;;;;;;;2.63;1.40;;;13.30;99.90;;;;;;4967892;28;20527;-56
2023/07/27 00:31:59;;;;;;;1.55;1.15;;;13.20;99.90;;;;;;4963338;28;20110;-57
2023/07/27 00:34:25;;;;;;;3.75;1.30;;;13.20;99.90;;;;;;4974230;28;20053;-58
2023/07/27 00:36:50;;;;;;;2.05;1.17;;;13.20;99.90;;;;;;4972314;28;20485;-58
2023/07/27 00:39:16;;;;;;;2.35;1.20;;;13.20;99.90;;;;;;4982997;28;20023;-58
2023/07/27 00:41:42;;;;;;;1.85;1.20;;;13.20;99.90;;;;;;4969607;28;20110;-58
2023/07/27 00:44:08;;;;;;;1.02;0.90;;;13.20;99.90;;;;;;4992410;28;20017;-55
2023/07/27 00:46:38;;;;;;;1.85;1.38;;;13.20;99.90;;;;;;4984327;28;20038;-58
2023/07/27 00:49:04;;;;;;;1.33;1.20;;;13.20;99.90;;;;;;4990113;28;20050;-58
2023/07/27 00:51:35;;;;;;;4.88;1.55;;;13.20;99.90;;;;;;4984918;28;20023;-58
2023/07/27 00:54:06;;;;;;;2.67;1.55;;;13.20;99.90;;;;;;4988453;28;20025;-56
2023/07/27 00:56:32;;;;;;;3.92;1.52;;;13.20;99.90;;;;;;4978578;28;20034;-57
2023/07/27 00:59:02;;;;;;;2.70;1.50;;;13.20;99.90;;;;;;4961501;28;20023;-58
2023/07/27 01:01:28;;;;;;;2.08;1.38;;;13.20;99.90;;;;;;4965589;28;20114;-54
2023/07/27 01:03:54;;;;;;;2.60;1.88;;;13.30;99.90;;;;;;4989155;28;20116;-57
2023/07/27 01:06:20;;;;;;;3.67;1.70;;;13.30;99.90;;;;;;4986331;28;20027;-57
2023/07/27 01:08:45;;;;;;;2.45;2.03;;;13.20;99.90;;;;;;4982822;28;20374;-57
2023/07/27 01:11:21;;;;;;;3.63;2.67;;;13.20;99.90;;;;;;4990277;28;20112;-56
2023/07/27 01:13:51;;;;;;;4.15;2.40;;;13.30;99.90;;;;;;4970299;28;20487;-58
2023/07/27 01:16:25;;;;;;;2.90;2.47;;;13.30;99.90;;;;;;4992070;28;20048;-57
2023/07/27 01:18:58;;;;;;;4.05;2.35;;;13.30;99.90;;;;;;4966611;28;20041;-58
2023/07/27 01:21:31;;;;;;;3.03;2.20;;;13.30;99.90;;;;;;4995125;28;20420;-55
2023/07/27 01:24:15;;;;;;;4.03;2.45;;;13.30;99.90;;;;;;4965635;28;20019;-58
2023/07/27 01:27:10;;;;;;;3.25;2.67;;;13.30;99.90;;;;;;4997232;28;20023;-56
2023/07/27 01:30:18;;;;;;;3.72;2.95;;;13.30;99.90;;;;;;4961193;28;20031;-56
2023/07/27 01:32:47;;;;;;;2.67;2.30;;;13.30;99.90;;;;;;4973725;28;20034;-57
2023/07/27 01:35:16;;;;;;;2.75;2.03;;;13.30;99.90;;;;;;4992988;28;20021;-58
2023/07/27 01:37:44;;;;;;;7.07;3.15;;;13.30;99.90;;;;;;4977433;28;20680;-56
2023/07/27 01:40:13;;;;;;;4.10;2.45;;;13.30;99.90;;;;;;4990205;28;20618;-57
2023/07/27 01:42:40;;;;;;;2.58;2.17;;;13.30;99.90;;;;;;4977927;28;20509;-57
2023/07/27 01:45:07;;;;;;;4.25;2.47;;;13.20;99.90;;;;;;4976797;28;20026;-58
2023/07/27 01:47:33;;;;;;;3.45;2.80;;;13.20;99.90;;;;;;4967926;28;20030;-57
2023/07/27 01:49:59;;;;;;;4.63;2.25;;;13.30;99.90;;;;;;4965739;28;20425;-56
2023/07/27 01:52:27;;;;;;;6.50;2.80;;;13.20;99.90;;;;;;4971890;28;20031;-57
2023/07/27 01:54:55;;;;;;;3.40;2.42;;;13.20;99.90;;;;;;4979701;28;20349;-57
2023/07/27 01:57:21;;;;;;;3.85;2.30;;;13.20;99.90;;;;;;4971298;28;20262;-58
2023/07/27 01:59:47;;;;;;;3.00;2.70;;;13.20;99.90;;;;;;4977217;28;20023;-56
2023/07/27 02:02:17;;;;;;;4.68;3.08;;;13.20;99.90;;;;;;4969933;28;20039;-57
2023/07/27 02:04:43;;;;;;;3.47;2.80;;;13.20;99.90;;;;;;4974346;28;20023;-58
2023/07/27 02:07:08;;;;;;;2.42;2.20;;;13.20;99.90;;;;;;4974701;28;20018;-57
2023/07/27 02:09:34;;;;;;;4.10;2.30;;;13.10;99.90;;;;;;4971765;28;20507;-56
2023/07/27 02:12:10;;;;;;;3.47;2.25;;;13.10;99.90;;;;;;4974467;28;20027;-54
2023/07/27 02:15:02;;;;;;;5.97;2.92;;;13.10;99.90;;;;;;4970667;28;20074;-58
2023/07/27 02:17:41;;;;;;;4.75;2.50;;;13.00;99.90;;;;;;4972683;28;20041;-56
2023/07/27 02:20:12;;;;;;;3.42;2.58;;;12.90;99.90;;;;;;5062503;23;20042;-60
2023/07/27 02:22:40;;;;;;;3.15;2.60;;;12.90;99.90;;;;;;5057683;28;20025;-60
2023/07/27 02:25:06;;;;;;;2.40;2.20;;;12.90;99.90;;;;;;5049432;28;20025;-60
2023/07/27 02:27:32;;;;;;;4.15;2.60;;;12.90;99.90;;;;;;5057187;28;20115;-61
2023/07/27 02:30:00;;;;;;;2.72;2.35;;;12.80;99.90;;;;;;5062561;28;20107;-60
2023/07/27 02:32:25;;;;;;;4.00;2.70;;;12.80;99.90;;;;;;5054665;28;20040;-61
2023/07/27 02:34:51;;;;;;;3.22;2.63;;;12.70;99.90;;;;;;5048021;28;20047;-61
2023/07/27 02:37:17;;;;;;;4.05;3.20;;;12.70;99.90;;;;;;5037324;28;20124;-59
2023/07/27 02:39:43;;;;;;;4.32;3.00;;;12.70;99.90;;;;;;5043322;28;20032;-58
2023/07/27 02:42:08;;;;;;;6.05;2.92;;;12.60;99.90;;;;;;5048078;28;20491;-58
2023/07/27 02:44:34;;;;;;;6.15;2.78;;;12.60;99.90;;;;;;5038099;28;20036;-60
2023/07/27 02:46:59;;;;;;;3.15;2.65;;;12.60;99.90;;;;;;5031503;28;20044;-60
2023/07/27 02:49:25;;;;;;;2.75;2.47;;;12.60;99.90;;;;;;5053640;28;20544;-60
2023/07/27 02:51:50;;;;;;;3.40;3.10;;;12.50;99.90;;;;;;5050295;28;20078;-60
2023/07/27 02:54:16;;;;;;;3.53;3.20;;;12.50;99.90;;;;;;5051416;28;20041;-60
2023/07/27 02:56:41;;;;;;;5.05;3.42;;;12.50;99.90;;;;;;5050273;28;20493;-58
2023/07/27 02:59:07;;;;;;;3.58;2.92;;;12.40;99.90;;;;;;5049792;28;20024;-61
2023/07/27 03:01:32;;;;;;;5.85;3.30;;;12.40;99.90;;;;;;5046217;28;20039;-59
2023/07/27 03:03:58;;;;;;;6.25;3.88;;;12.40;99.90;;;;;;5046628;28;20055;-59
2023/07/27 03:06:23;;;;;;;4.80;2.90;;;12.40;99.90;;;;;;5043606;28;20049;-60
2023/07/27 03:08:49;;;;;;;5.88;3.40;;;12.30;99.90;;;;;;5059051;28;20036;-60
2023/07/27 03:11:14;;;;;;;5.93;3.63;;;12.30;99.90;;;;;;5043434;28;20025;-62
2023/07/27 03:13:41;;;;;;;5.93;3.75;;;12.30;99.90;;;;;;5055987;28;20040;-61
2023/07/27 03:16:06;;;;;;;4.40;3.65;;;12.30;99.90;;;;;;5043543;28;20029;-60
2023/07/27 03:18:32;;;;;;;5.40;4.07;;;12.20;99.90;;;;;;5052916;28;20043;-59
2023/07/27 03:21:01;;;;;;;5.07;3.38;;;12.20;99.90;;;;;;5043988;28;20026;-60
2023/07/27 03:23:27;;;;;;;5.13;4.05;;;12.20;99.90;;;;;;5049995;28;20048;-61
2023/07/27 03:25:52;;;;;;;6.15;3.72;;;12.20;99.90;;;;;;5038077;28;20699;-61
2023/07/27 03:28:18;;;;;;;5.28;3.92;;;12.20;99.90;;;;;;5048533;28;20033;-60
2023/07/27 03:30:43;;;;;;;6.78;4.32;;;12.10;99.90;;;;;;5037726;28;20112;-60
2023/07/27 03:33:09;;;;;;;3.97;3.53;;;12.10;99.90;;;;;;5028731;28;20081;-59
2023/07/27 03:35:35;;;;;;;5.72;3.83;;;12.10;99.90;;;;;;5034837;28;20040;-60
2023/07/27 03:38:02;;;;;;;4.28;3.42;;;12.10;99.90;;;;;;5046060;28;20036;-60
2023/07/27 03:40:27;;;;;;;6.05;3.83;;;12.10;99.90;;;;;;5034415;28;20517;-60
2023/07/27 03:42:53;;;;;;;5.60;3.72;;;12.10;99.90;;;;;;5044284;28;20047;-60
2023/07/27 03:45:18;;;;;;;6.68;3.65;;;12.10;99.90;;;;;;5046769;28;20033;-58
2023/07/27 03:47:45;;;;;;;4.63;3.65;;;12.10;99.90;;;;;;5032999;28;20074;-60
2023/07/27 03:50:11;;;;;;;5.10;4.13;;;12.10;99.90;;;;;;5044850;28;20476;-59
2023/07/27 03:52:37;;;;;;;6.75;3.83;;;12.10;99.90;;;;;;5045012;28;20120;-60
2023/07/27 03:55:03;;;;;;;5.15;3.75;;;12.00;99.90;;;;;;5043804;28;20447;-60
2023/07/27 03:57:29;;;;;;;5.10;3.97;;;12.00;99.90;;;;;;5035764;28;20109;-60
2023/07/27 03:59:58;;;;;;;8.20;4.40;;;12.10;99.90;;;;;;5037327;28;20024;-60
2023/07/27 04:02:24;;;;;;;4.60;3.60;;;12.00;99.90;;;;;;5019303;28;20045;-60
2023/07/27 04:04:51;;;;;;;6.07;4.05;;;12.10;99.90;;;;;;5053415;28;20060;-57
2023/07/27 04:07:20;;;;;;;6.00;4.03;;;12.10;99.90;;;;;;5037221;28;20055;-59
2023/07/27 04:09:46;;;;;;;6.35;4.63;;;12.10;99.90;;;;;;5033651;28;20381;-58
2023/07/27 04:12:12;;;;;;;4.70;3.85;;;12.10;99.90;;;;;;5036955;28;20041;-60
2023/07/27 04:14:40;;;;;;;6.57;4.10;;;12.20;99.90;;;;;;5048552;28;20083;-59
2023/07/27 04:17:06;;;;;;;5.90;4.22;;;12.20;99.90;;;;;;5049372;28;20030;-59
2023/07/27 04:19:34;;;;;;;5.85;3.90;;;12.20;99.90;;;;;;5029363;28;20090;-59
2023/07/27 04:21:59;;;;;;;6.05;4.32;;;12.20;99.90;;;;;;5047783;28;20622;-60
2023/07/27 04:24:25;;;;;;;7.00;4.10;;;12.30;99.90;;;;;;5033700;28;20013;-60
2023/07/27 04:26:50;;;;;;;5.38;4.30;;;12.30;99.90;;;;;;5052781;28;20032;-60
2023/07/27 04:29:16;;;;;;;7.20;4.57;;;12.30;99.90;;;;;;5045601;28;20139;-60
2023/07/27 04:31:41;;;;;;;6.22;3.90;;;12.30;99.90;;;;;;5045554;28;20037;-60
2023/07/27 04:34:07;;;;;;;5.65;4.28;;;12.40;99.90;;;;;;5041260;28;20025;-58
2023/07/27 04:36:32;;;;;;;5.22;4.28;;;12.40;99.90;;;;;;5053276;28;20028;-60
2023/07/27 04:38:58;;;;;;;6.20;4.68;;;12.40;99.90;;;;;;5043257;28;20127;-59
2023/07/27 04:41:24;;;;;;;5.22;4.05;;;12.40;99.90;;;;;;5055754;28;20027;-58
2023/07/27 04:43:49;;;;;;;5.95;4.50;;;12.50;99.90;;;;;;5039318;28;20768;-58
2023/07/27 04:46:15;;;;;;;5.95;4.68;;;12.50;99.90;;;;;;5034990;28;20522;-59
2023/07/27 04:48:40;;;;;;;6.10;4.55;;;12.60;99.90;;;;;;5042861;28;20109;-58
2023/07/27 04:51:06;;;;;;;5.78;4.28;;;12.70;99.90;;;;;;5045696;28;20059;-59
2023/07/27 04:53:31;;;;;;;6.38;4.20;;;12.70;99.90;;;;;;5054349;28;20044;-59
2023/07/27 04:55:57;;;;;;;8.93;4.85;;;12.80;99.90;;;;;;5030868;28;20399;-58
2023/07/27 04:58:23;;;;;;;6.50;4.70;;;12.90;99.90;;;;;;5055192;28;20111;-58
2023/07/27 05:00:53;;;;;;;7.90;4.47;;;12.90;99.90;;;;;;5025622;28;20033;-60
2023/07/27 05:03:18;;;;;;;7.05;4.85;;;13.00;99.90;;;;;;5053545;28;20039;-60
2023/07/27 05:05:44;;;;;;;5.85;4.22;;;13.00;99.90;;;;;;5026350;28;20014;-60
2023/07/27 05:08:09;;;;;;;8.27;5.15;;;13.10;99.90;;;;;;5031345;28;20067;-59
2023/07/27 05:10:38;;;;;;;6.57;4.60;;;13.10;99.90;;;;;;5055144;28;20483;-60
2023/07/27 05:13:03;;;;;;;7.05;4.60;;;13.10;99.90;;;;;;5049088;28;20025;-60
2023/07/27 05:15:29;;;;;;;6.20;4.13;;;13.20;99.90;;;;;;5054085;28;20025;-63
2023/07/27 05:17:54;;;;;;;7.65;4.65;;;13.20;99.90;;;;;;5045884;28;20029;-59
2023/07/27 05:20:20;;;;;;;6.10;4.13;;;13.20;99.90;;;;;;5028594;28;20025;-59
2023/07/27 05:22:45;;;;;;;7.50;4.90;;;13.20;99.90;;;;;;5043014;28;20018;-60
2023/07/27 05:25:11;;;;;;;7.00;4.45;;;13.30;99.90;;;;;;5048185;28;20096;-58
2023/07/27 05:27:36;;;;;;;6.00;4.35;;;13.30;99.90;;;;;;5054462;28;20059;-60
2023/07/27 05:30:03;;;;;;;7.68;4.90;;;13.30;99.90;;;;;;5035238;28;20061;-60
2023/07/27 05:32:28;;;;;;;6.10;4.43;;;13.40;99.90;;;;;;5045451;28;20675;-60
2023/07/27 05:34:54;;;;;;;5.82;4.80;;;13.40;99.90;;;;;;5038702;28;20026;-60
2023/07/27 05:37:20;;;;;;;6.53;4.40;;;13.40;99.90;;;;;;5039758;28;20036;-59
2023/07/27 05:39:46;;;;;;;6.03;4.32;;;13.40;99.90;;;;;;5046104;28;20014;-60
2023/07/27 05:42:11;;;;;;;7.15;4.38;;;13.40;99.90;;;;;;5034897;28;20027;-60
2023/07/27 05:44:37;;;;;;;6.57;5.20;;;13.50;99.90;;;;;;5046223;28;20086;-59
2023/07/27 05:47:05;;;;;;;7.38;4.72;;;13.50;99.90;;;;;;5049799;28;20037;-59
2023/07/27 05:49:30;;;;;;;5.38;4.20;;;13.50;99.90;;;;;;5045680;28;20013;-60
2023/07/27 05:51:56;;;;;;;6.38;5.10;;;13.60;99.90;;;;;;5048306;28;20014;-59
2023/07/27 05:54:22;;;;;;;10.13;4.70;;;13.60;99.90;;;;;;5045471;28;20083;-58
2023/07/27 05:56:48;;;;;;;7.00;5.20;;;13.60;99.90;;;;;;5028711;28;20021;-59
2023/07/27 05:59:14;;;;;;;4.95;4.10;;;13.70;99.90;;;;;;5042524;28;20072;-60
2023/07/27 06:01:39;;;;;;;7.43;5.07;;;13.70;99.90;;;;;;5044518;28;20025;-60
2023/07/27 06:04:06;;;;;;;6.45;5.38;;;13.80;99.90;;;;;;5042798;28;20009;-60
2023/07/27 06:06:31;;;;;;;6.32;4.40;;;13.80;99.90;;;;;;5040494;28;20017;-60
2023/07/27 06:08:57;;;;;;;6.97;5.70;;;13.90;99.90;;;;;;5024935;28;20025;-59
2023/07/27 06:11:23;;;;;;;7.78;5.00;;;14.10;99.90;;;;;;5051261;28;20494;-60
2023/07/27 06:13:48;;;;;;;7.63;5.80;;;14.20;99.90;;;;;;5042792;28;20467;-60
2023/07/27 06:16:15;;;;;;;7.68;6.00;;;14.20;99.90;;;;;;5047450;28;20065;-60
2023/07/27 06:18:41;;;;;;;8.25;6.10;;;14.30;99.90;;;;;;5043625;28;20025;-60
2023/07/27 06:21:06;;;;;;;6.35;5.68;;;14.30;99.90;;;;;;5045843;28;20028;-61
2023/07/27 06:23:32;;;;;;;7.40;5.55;;;14.40;99.90;;;;;;5041831;28;20017;-61
2023/07/27 06:25:57;;;;;;;6.50;5.70;;;14.40;99.90;;;;;;5043655;28;20036;-61
2023/07/27 06:28:23;;;;;;;7.65;5.90;;;14.50;99.90;;;;;;5054293;28;20036;-60
2023/07/27 06:30:49;;;;;;;6.72;5.53;;;14.60;99.90;;;;;;5021661;28;20025;-60
2023/07/27 06:33:15;;;;;;;7.13;6.20;;;14.70;99.90;;;;;;5028855;28;20025;-59
2023/07/27 06:35:41;;;;;;;6.78;5.95;;;14.70;99.90;;;;;;5046794;28;20055;-61
2023/07/27 06:38:07;;;;;;;6.57;5.35;;;14.80;99.90;;;;;;5040448;28;20051;-61
2023/07/27 06:40:32;;;;;;;8.80;5.38;;;14.80;99.90;;;;;;5020051;28;20025;-58
2023/07/27 06:42:58;;;;;;;6.25;5.50;;;14.90;99.90;;;;;;5056390;28;20536;-57
2023/07/27 06:45:24;;;;;;;7.60;5.28;;;14.90;99.90;;;;;;5031004;28;20426;-61
2023/07/27 06:47:50;;;;;;;5.88;5.28;;;14.90;99.90;;;;;;5037062;28;20511;-61
2023/07/27 06:50:15;;;;;;;8.93;6.72;;;14.80;99.90;;;;;;5033297;28;20033;-59
2023/07/27 06:52:41;;;;;;;7.78;6.05;;;14.80;99.90;;;;;;5055044;28;20094;-60
2023/07/27 06:55:07;;;;;;;7.07;5.47;;;14.80;99.90;;;;;;5037920;28;20021;-56
2023/07/27 06:57:32;;;;;;;6.55;5.03;;;14.90;99.90;;;;;;5047846;28;20043;-60
2023/07/27 06:59:58;;;;;;;8.02;5.03;;;14.90;99.90;;;;;;5055711;28;20072;-60
2023/07/27 07:02:23;;;;;;;7.50;5.15;;;14.90;99.90;;;;;;5033724;28;20029;-61
2023/07/27 07:04:49;;;;;;;6.00;4.97;;;15.00;99.90;;;;;;5054389;28;20025;-61
2023/07/27 07:07:15;;;;;;;10.13;6.13;;;15.10;99.90;;;;;;5033231;28;20368;-61
2023/07/27 07:09:40;;;;;;;5.72;4.32;;;15.10;99.90;;;;;;5054958;28;20075;-60
2023/07/27 07:12:07;;;;;;;7.30;5.82;;;15.10;99.90;;;;;;5056263;28;20086;-58
2023/07/27 07:14:33;;;;;;;7.22;4.68;;;15.20;99.90;;;;;;5034081;28;20154;-57
2023/07/27 07:17:02;;;;;;;9.07;5.70;;;15.30;99.90;;;;;;5032271;28;20026;-58
2023/07/27 07:19:28;;;;;;;11.20;4.68;;;15.30;99.90;;;;;;5048155;28;20067;-59
2023/07/27 07:21:53;;;;;;;6.72;5.43;;;15.40;99.90;;;;;;5053320;28;20052;-61
2023/07/27 07:24:19;;;;;;;5.68;4.78;;;15.40;99.90;;;;;;5045332;28;20383;-61
2023/07/27 07:26:45;;;;;;;7.75;5.20;;;15.50;99.90;;;;;;5036943;28;20025;-59
2023/07/27 07:29:11;;;;;;;7.57;5.10;;;15.50;99.90;;;;;;5055088;28;20039;-61
2023/07/27 07:31:37;;;;;;;5.95;4.50;;;15.60;99.90;;;;;;5047532;28;20037;-62
2023/07/27 07:34:02;;;;;;;5.38;4.50;;;15.70;99.90;;;;;;5037289;28;20025;-60
2023/07/27 07:36:28;;;;;;;6.85;5.10;;;15.90;99.90;;;;;;5056075;28;20028;-60
2023/07/27 07:38:54;;;;;;;5.82;4.85;;;16.10;99.90;;;;;;5028402;28;20087;-61
2023/07/27 07:41:19;;;;;;;7.57;4.72;;;16.20;99.90;;;;;;5054381;28;20036;-60
2023/07/27 07:43:45;;;;;;;6.38;5.15;;;16.30;99.90;;;;;;5040628;28;20116;-62
2023/07/27 07:46:14;;;;;;;7.10;4.38;;;16.40;99.90;;;;;;5039528;28;20505;-61
2023/07/27 07:48:40;;;;;;;5.82;4.78;;;16.40;99.90;;;;;;5047155;28;20395;-60
2023/07/27 07:51:12;;;;;;;5.80;5.20;;;16.50;99.90;;;;;;5047096;28;20040;-61
2023/07/27 07:53:38;;;;;;;6.35;4.25;;;16.70;99.90;;;;;;5056419;28;20096;-59
2023/07/27 07:56:05;;;;;;;8.35;4.60;;;16.80;99.90;;;;;;5048829;28;20482;-60
2023/07/27 07:58:31;;;;;;;6.38;4.38;;;16.90;99.90;;;;;;5055480;28;20024;-60
2023/07/27 08:00:57;;;;;;;5.72;4.05;;;16.90;99.90;;;;;;5046605;28;20029;-60
2023/07/27 08:03:22;;;;;;;5.18;4.68;;;16.90;99.90;;;;;;5054425;28;20040;-62
2023/07/27 08:05:48;;;;;;;6.70;4.57;;;16.90;99.90;;;;;;5046959;28;20025;-60
2023/07/27 08:08:14;;;;;;;6.18;4.20;;;16.90;99.90;;;;;;5043181;28;20099;-61
2023/07/27 08:10:39;;;;;;;4.28;3.88;;;16.90;99.90;;;;;;5053569;28;20032;-61
2023/07/27 08:13:05;;;;;;;6.18;4.05;;;16.80;99.90;;;;;;5043060;28;20104;-61
2023/07/27 08:15:31;;;;;;;6.72;4.97;;;16.70;99.90;;;;;;5054380;28;20028;-61
2023/07/27 08:17:56;;;;;;;6.72;4.65;;;16.70;99.90;;;;;;5037748;28;20032;-59
2023/07/27 08:20:22;;;;;;;6.80;5.10;;;16.70;99.90;;;;;;5091058;22;20055;-58
2023/07/27 08:22:47;;;;;;;7.00;4.40;;;16.60;99.90;;;;;;5057068;28;20092;-58
2023/07/27 08:25:14;;;;;;;4.80;4.18;;;16.50;99.90;;;;;;5061344;28;20078;-58
2023/07/27 08:27:40;;;;;;;6.50;4.47;;;16.50;99.90;;;;;;5065854;28;20241;-58
2023/07/27 08:30:07;;;;;;;5.70;4.28;;;16.50;99.90;;;;;;5051404;28;20024;-57
2023/07/27 08:32:33;;;;;;;5.00;3.75;;;16.40;99.90;;;;;;5048081;28;20117;-60
2023/07/27 08:34:58;;;;;;;5.07;4.25;;;16.40;99.90;;;;;;5059053;28;20637;-58
2023/07/27 08:37:24;;;;;;;6.38;4.50;;;16.40;99.90;;;;;;5060243;28;20037;-58
2023/07/27 08:39:49;;;;;;;5.20;3.70;;;16.40;99.90;;;;;;5051515;28;20066;-56
2023/07/27 08:42:15;;;;;;;3.70;3.28;;;16.30;99.90;;;;;;5058359;28;20020;-57
2023/07/27 08:44:43;;;;;;;6.10;4.03;;;16.30;99.90;;;;;;5056843;28;20501;-57
2023/07/27 08:47:10;;;;;;;5.50;3.67;;;16.30;99.90;;;;;;5045434;28;20044;-58
2023/07/27 08:49:37;;;;;;;7.13;3.70;;;16.30;99.90;;;;;;5061847;28;20494;-57
2023/07/27 08:52:03;;;;;;;5.60;3.30;;;16.30;99.90;;;;;;5053655;28;20111;-53
2023/07/27 08:54:29;;;;;;;4.32;3.35;;;16.30;99.90;;;;;;5062309;28;20522;-59
2023/07/27 08:56:55;;;;;;;5.15;3.70;;;16.40;99.90;;;;;;5058833;28;20030;-56
2023/07/27 08:59:24;;;;;;;4.82;3.38;;;16.40;99.90;;;;;;5061502;28;20025;-57
2023/07/27 09:01:50;;;;;;;4.63;3.83;;;16.50;99.90;;;;;;5053859;28;20513;-56
2023/07/27 09:04:15;;;;;;;6.63;5.28;;;16.50;99.90;;;;;;5049856;28;20100;-56
2023/07/27 09:06:44;;;;;;;5.57;4.28;;;16.50;99.90;;;;;;5062778;28;20093;-57
2023/07/27 09:09:12;;;;;;;6.63;3.75;;;16.60;99.90;;;;;;5055602;28;20028;-57
2023/07/27 09:11:39;;;;;;;5.07;3.90;;;16.50;99.90;;;;;;5061956;28;20029;-57
2023/07/27 09:14:04;;;;;;;4.88;3.28;;;16.60;99.90;;;;;;5054033;28;20109;-57
2023/07/27 09:16:34;;;;;;;3.88;3.25;;;16.60;99.90;;;;;;5055017;28;20088;-57
2023/07/27 09:19:01;;;;;;;4.25;3.55;;;16.70;99.90;;;;;;5053927;28;20256;-57
2023/07/27 09:21:27;;;;;;;5.70;3.13;;;16.80;99.90;;;;;;5054468;28;20546;-58
2023/07/27 09:23:58;;;;;;;4.20;3.78;;;16.80;99.90;;;;;;5054706;28;20179;-57
2023/07/27 09:26:27;;;;;;;4.00;3.60;;;16.90;99.90;;;;;;5050187;28;20254;-60
2023/07/27 09:28:53;;;;;;;4.35;3.50;;;16.90;99.90;;;;;;5049565;28;20031;-55
2023/07/27 09:31:19;;;;;;;6.75;3.42;;;17.00;99.90;;;;;;5054345;28;20039;-59
2023/07/27 09:33:45;;;;;;;4.53;3.72;;;17.10;99.90;;;;;;5051795;28;20029;-59
2023/07/27 09:36:11;;;;;;;4.70;3.72;;;17.10;99.90;;;;;;5055055;28;20020;-57
2023/07/27 09:38:38;;;;;;;5.30;3.63;;;17.10;99.90;;;;;;5051340;28;20047;-58
2023/07/27 09:41:07;;;;;;;5.70;4.28;;;17.10;99.90;;;;;;5060001;28;20025;-58
2023/07/27 09:43:39;;;;;;;7.15;4.10;;;17.10;99.90;;;;;;5054996;28;20096;-59
2023/07/27 09:46:05;;;;;;;4.68;4.22;;;17.10;99.90;;;;;;5056789;28;20402;-58
2023/07/27 09:48:32;;;;;;;10.02;4.38;;;17.10;99.90;;;;;;5053987;28;20041;-56
2023/07/27 09:50:59;;;;;;;5.00;3.80;;;17.20;99.90;;;;;;5057737;28;20027;-59
2023/07/27 09:53:28;;;;;;;5.35;4.50;;;17.20;99.90;;;;;;5057992;28;20021;-59
2023/07/27 09:55:56;;;;;;;5.35;4.43;;;17.20;99.90;;;;;;5057995;28;20016;-58
2023/07/27 09:58:22;;;;;;;4.97;3.60;;;17.30;99.90;;;;;;5057583;28;20028;-58
2023/07/27 10:00:48;;;;;;;8.68;4.57;;;17.20;99.90;;;;;;5056819;28;20029;-57
2023/07/27 10:03:14;;;;;;;6.78;3.83;;;17.30;99.90;;;;;;5057007;28;20017;-59
2023/07/27 10:05:41;;;;;;;5.20;4.57;;;17.30;99.90;;;;;;5055928;28;20028;-59
2023/07/27 10:08:07;;;;;;;6.15;4.03;;;17.30;99.90;;;;;;5055797;28;20432;-58
2023/07/27 10:10:32;;;;;;;6.35;4.28;;;17.40;99.90;;;;;;5053482;28;20124;-58
2023/07/27 10:13:30;;;;;;;6.53;5.35;;;17.40;99.90;;;;;;5056924;28;20139;-59
2023/07/27 10:15:56;;;;;;;8.20;5.00;;;17.40;99.90;;;;;;5055662;28;20032;-57
2023/07/27 10:18:26;;;;;;;6.00;4.57;;;17.50;99.90;;;;;;5051712;28;20025;-55
2023/07/27 10:20:55;;;;;;;4.80;4.20;;;17.50;99.90;;;;;;5050954;28;20116;-59
2023/07/27 10:23:28;;;;;;;6.22;4.80;;;17.70;99.90;;;;;;5054041;28;20499;-60
2023/07/27 10:25:57;;;;;;;5.63;4.60;;;17.80;99.90;;;;;;5058384;28;20021;-58
2023/07/27 10:28:43;;;;;;;4.57;4.10;;;17.90;99.90;;;;;;5052819;28;20541;-60
2023/07/27 10:31:15;;;;;;;6.25;4.18;;;18.00;99.90;;;;;;5062139;28;20040;-53
2023/07/27 10:33:48;;;;;;;4.65;4.03;;;18.10;99.90;;;;;;5052246;28;20518;-60
2023/07/27 10:36:15;;;;;;;4.32;3.92;;;18.20;99.90;;;;;;5050681;28;20491;-55
2023/07/27 10:38:50;;;;;;;5.18;4.00;;;18.20;99.90;;;;;;5058652;28;20033;-56
2023/07/27 10:41:16;;;;;;;5.00;3.53;;;18.30;99.90;;;;;;5051078;28;20618;-58
2023/07/27 10:44:06;;;;;;;3.67;3.22;;;18.40;99.90;;;;;;5058576;28;20268;-57
2023/07/27 10:46:32;;;;;;;4.60;3.65;;;18.60;99.90;;;;;;5058261;28;20017;-57
2023/07/27 10:49:06;;;;;;;4.50;4.10;;;18.70;99.90;;;;;;5060416;28;20383;-58
2023/07/27 10:51:32;;;;;;;4.38;3.28;;;18.80;99.90;;;;;;5054504;28;20143;-59
2023/07/27 10:53:59;;;;;;;5.78;3.55;;;18.90;99.90;;;;;;5056675;28;20108;-57
2023/07/27 10:56:25;;;;;;;3.38;3.08;;;18.90;99.90;;;;;;5060123;28;20025;-59
2023/07/27 10:58:56;;;;;;;3.58;2.85;;;19.00;99.90;;;;;;5059086;28;20032;-58
2023/07/27 11:01:21;;;;;;;7.28;3.90;;;19.10;99.90;;;;;;5058883;28;20605;-55
2023/07/27 11:03:47;;;;;;;6.47;3.83;;;19.00;99.90;;;;;;5049593;28;20044;-58
2023/07/27 11:06:13;;;;;;;4.10;3.25;;;19.00;99.90;;;;;;5058056;28;20017;-54
2023/07/27 11:08:40;;;;;;;4.63;3.42;;;19.00;99.90;;;;;;5052980;28;20028;-56
2023/07/27 11:11:18;;;;;;;3.92;3.10;;;18.90;99.90;;;;;;5054159;28;20036;-59
2023/07/27 11:13:43;;;;;;;4.75;3.80;;;18.90;99.90;;;;;;5058116;28;20052;-60
2023/07/27 11:16:09;;;;;;;3.55;3.17;;;19.00;99.90;;;;;;5050648;28;20064;-57
2023/07/27 11:18:35;;;;;;;4.10;2.90;;;18.90;99.90;;;;;;5057455;28;20040;-56
2023/07/27 11:21:02;;;;;;;4.18;3.33;;;18.90;99.90;;;;;;5059124;28;20136;-56
2023/07/27 11:23:29;;;;;;;4.60;3.67;;;18.90;99.90;;;;;;5053987;28;20025;-58
2023/07/27 11:25:56;;;;;;;3.88;3.10;;;18.90;99.90;;;;;;5057503;28;20012;-58
2023/07/27 11:28:22;;;;;;;7.07;3.60;;;18.90;99.90;;;;;;5050562;28;20033;-53
2023/07/27 11:30:52;;;;;;;5.18;3.40;;;18.90;99.90;;;;;;5060411;28;20132;-55
2023/07/27 11:33:20;;;;;;;3.22;2.78;;;18.80;99.90;;;;;;5059104;28;20432;-57
2023/07/27 11:35:47;;;;;;;5.80;3.42;;;18.80;99.90;;;;;;5058705;28;20109;-58
2023/07/27 11:38:13;;;;;;;4.65;3.95;;;18.80;99.90;;;;;;5052470;28;20036;-55
2023/07/27 11:40:44;;;;;;;4.20;3.22;;;18.80;99.90;;;;;;5051651;28;20398;-59
2023/07/27 11:43:09;;;;;;;4.43;3.88;;;18.80;99.90;;;;;;5052643;28;20443;-57
2023/07/27 11:45:37;;;;;;;3.97;2.63;;;18.80;99.90;;;;;;5047674;28;20040;-59
2023/07/27 11:48:03;;;;;;;5.20;3.17;;;18.80;99.90;;;;;;5060637;28;20021;-56
2023/07/27 11:50:29;;;;;;;3.17;2.80;;;18.90;99.90;;;;;;5052623;28;20078;-56
2023/07/27 11:53:01;;;;;;;5.25;3.35;;;19.00;99.90;;;;;;5052177;28;20220;-59
2023/07/27 11:55:36;;;;;;;4.00;2.83;;;19.00;99.90;;;;;;5052199;28;20171;-59
2023/07/27 11:58:09;;;;;;;4.95;2.90;;;19.00;99.90;;;;;;5060298;28;20032;-57
2023/07/27 12:00:38;;;;;;;5.68;3.35;;;19.10;99.90;;;;;;5055494;28;20033;-60
2023/07/27 12:03:04;;;;;;;2.85;2.28;;;19.20;99.90;;;;;;5053496;28;20074;-55
2023/07/27 12:05:31;;;;;;;4.82;3.47;;;19.20;99.90;;;;;;5053497;28;20036;-60
2023/07/27 12:07:57;;;;;;;3.45;2.88;;;19.30;99.90;;;;;;5059711;28;20024;-56
2023/07/27 12:10:23;;;;;;;4.18;3.40;;;19.20;99.90;;;;;;5063603;28;20024;-62
2023/07/27 12:13:03;;;;;;;5.68;2.75;;;19.20;99.90;;;;;;5060084;28;20027;-54
2023/07/27 12:15:33;;;;;;;4.95;3.90;;;19.20;99.90;;;;;;5051208;28;20064;-54
2023/07/27 12:18:02;;;;;;;4.13;3.20;;;19.20;99.90;;;;;;5060688;28;20017;-58
2023/07/27 12:20:29;;;;;;;3.00;2.75;;;19.10;99.90;;;;;;5049907;28;20411;-59
2023/07/27 12:22:58;;;;;;;3.67;2.80;;;19.10;99.90;;;;;;5060839;28;20028;-57
2023/07/27 12:25:27;;;;;;;3.33;2.85;;;19.20;99.90;;;;;;5053130;28;20032;-58
2023/07/27 12:27:53;;;;;;;3.03;2.65;;;19.20;99.90;;;;;;5038539;28;20021;-58
2023/07/27 12:30:22;;;;;;;3.53;2.70;;;19.20;99.90;;;;;;5045281;28;20029;-59
2023/07/27 12:32:48;;;;;;;3.55;2.80;;;19.20;99.90;;;;;;5050387;28;20047;-54
2023/07/27 12:35:14;;;;;;;3.97;2.53;;;19.30;99.90;;;;;;5046095;28;20031;-59
2023/07/27 12:37:39;;;;;;;2.92;2.60;;;19.30;99.90;;;;;;5051788;28;20024;-56
2023/07/27 12:40:06;;;;;;;3.17;2.70;;;19.30;99.90;;;;;;5053197;28;20025;-59
2023/07/27 12:42:31;;;;;;;4.45;2.70;;;19.30;99.90;;;;;;5040155;28;20079;-58
2023/07/27 12:44:57;;;;;;;5.45;3.15;;;19.30;99.90;;;;;;5057012;28;20028;-59